DLH912 EGKK-ELLX
Flight info
| Callsign | DLH912 |
|---|---|
| Flight time | 1h 4m |
| Altitude | 33000 |
| Route | MIMFO Y312 DVR UL9 KONAN UL607 REMBA |
| Aircraft | A320/M-SDE3FGHIRWY/LB1 |
Departure
| Time | 2026-04-16 14:54 |
|---|---|
| Airport | London Gatwick Airport (EGKK) |
Arrival
| Time | 2026-04-16 15:58 |
|---|---|
| Airport | Luxembourg-Findel International Airport (ELLX) |
| Time | Latitude | Longitude | Altitude | Speed | Heading |
|---|---|---|---|---|---|
| 2026-04-16 14:19 | 51.15827 | -0.17739 | 208 ft | 0 kts | 348° |
| 2026-04-16 14:43 | 51.15806 | -0.17732 | 207 ft | 4 kts | 347° |
| 2026-04-16 14:43 | 51.15781 | -0.17722 | 213 ft | 4 kts | 352° |
| 2026-04-16 14:43 | 51.15756 | -0.17725 | 214 ft | 4 kts | 27° |
| 2026-04-16 14:43 | 51.15736 | -0.17751 | 213 ft | 4 kts | 55° |
| 2026-04-16 14:44 | 51.15723 | -0.17789 | 214 ft | 4 kts | 75° |
| 2026-04-16 14:44 | 51.15719 | -0.17821 | 214 ft | 3 kts | 78° |
| 2026-04-16 14:44 | 51.15718 | -0.17827 | 213 ft | 0 kts | 78° |
| 2026-04-16 14:47 | 51.15718 | -0.17824 | 213 ft | 2 kts | 78° |
| 2026-04-16 14:47 | 51.15725 | -0.17775 | 215 ft | 9 kts | 78° |
| 2026-04-16 14:48 | 51.15738 | -0.17679 | 212 ft | 8 kts | 77° |
| 2026-04-16 14:48 | 51.15750 | -0.17548 | 214 ft | 13 kts | 103° |
| 2026-04-16 14:48 | 51.15674 | -0.17487 | 209 ft | 13 kts | 168° |
| 2026-04-16 14:48 | 51.15577 | -0.17452 | 211 ft | 15 kts | 167° |
| 2026-04-16 14:49 | 51.15471 | -0.17416 | 205 ft | 17 kts | 168° |
| 2026-04-16 14:49 | 51.15353 | -0.17375 | 211 ft | 18 kts | 167° |
| 2026-04-16 14:49 | 51.15291 | -0.17240 | 217 ft | 15 kts | 129° |
| 2026-04-16 14:49 | 51.15274 | -0.17087 | 214 ft | 14 kts | 80° |
| 2026-04-16 14:50 | 51.15290 | -0.16938 | 216 ft | 13 kts | 78° |
| 2026-04-16 14:50 | 51.15282 | -0.16843 | 212 ft | 0 kts | 125° |
| 2026-04-16 14:51 | 51.15281 | -0.16842 | 211 ft | 1 kts | 127° |
| 2026-04-16 14:51 | 51.15268 | -0.16829 | 211 ft | 2 kts | 150° |
| 2026-04-16 14:53 | 51.14748 | -0.19365 | 242 ft | 154 kts | 252° |
| 2026-04-16 14:53 | 51.14527 | -0.21089 | 747 ft | 163 kts | 253° |
| 2026-04-16 14:54 | 51.14263 | -0.22873 | 1399 ft | 171 kts | 252° |
| 2026-04-16 14:54 | 51.13950 | -0.24725 | 2031 ft | 177 kts | 251° |
| 2026-04-16 14:54 | 51.13595 | -0.26660 | 2690 ft | 187 kts | 251° |
| 2026-04-16 14:54 | 51.13255 | -0.28652 | 3587 ft | 183 kts | 260° |
| 2026-04-16 14:55 | 51.13356 | -0.30682 | 4324 ft | 194 kts | 286° |
| 2026-04-16 14:55 | 51.14271 | -0.32426 | 4732 ft | 227 kts | 329° |
| 2026-04-16 14:55 | 51.15883 | -0.32913 | 4999 ft | 247 kts | 4° |
| 2026-04-16 14:55 | 51.17524 | -0.32085 | 5006 ft | 251 kts | 28° |
| 2026-04-16 14:56 | 51.18838 | -0.30276 | 5009 ft | 252 kts | 56° |
| 2026-04-16 14:56 | 51.19458 | -0.27707 | 5018 ft | 251 kts | 79° |
| 2026-04-16 14:56 | 51.19812 | -0.25011 | 5009 ft | 253 kts | 81° |
| 2026-04-16 14:56 | 51.20140 | -0.22263 | 5004 ft | 252 kts | 81° |
| 2026-04-16 14:57 | 51.20464 | -0.19495 | 5017 ft | 265 kts | 81° |
| 2026-04-16 14:57 | 51.20829 | -0.16492 | 5011 ft | 281 kts | 80° |
| 2026-04-16 14:57 | 51.21219 | -0.13413 | 5011 ft | 283 kts | 80° |
| 2026-04-16 14:57 | 51.21622 | -0.10333 | 5011 ft | 283 kts | 78° |
| 2026-04-16 14:58 | 51.22031 | -0.07255 | 5009 ft | 284 kts | 79° |
| 2026-04-16 14:58 | 51.22846 | -0.01100 | 5012 ft | 282 kts | 79° |
| 2026-04-16 14:58 | 51.23252 | 0.01986 | 4862 ft | 284 kts | 79° |
| 2026-04-16 14:59 | 51.23657 | 0.05096 | 4845 ft | 287 kts | 79° |
| 2026-04-16 14:59 | 51.24060 | 0.08210 | 4822 ft | 285 kts | 79° |
| 2026-04-16 14:59 | 51.24453 | 0.11262 | 4808 ft | 285 kts | 79° |
| 2026-04-16 14:59 | 51.24857 | 0.14418 | 4786 ft | 288 kts | 80° |
| 2026-04-16 15:00 | 51.25250 | 0.17492 | 4762 ft | 286 kts | 81° |
| 2026-04-16 15:00 | 51.25420 | 0.20638 | 4762 ft | 286 kts | 95° |
| 2026-04-16 15:00 | 51.25184 | 0.23836 | 5390 ft | 293 kts | 100° |
| 2026-04-16 15:00 | 51.24931 | 0.27050 | 5626 ft | 290 kts | 99° |
| 2026-04-16 15:01 | 51.24695 | 0.30231 | 5665 ft | 287 kts | 98° |
| 2026-04-16 15:01 | 51.24466 | 0.33393 | 5656 ft | 287 kts | 98° |
| 2026-04-16 15:01 | 51.24238 | 0.36552 | 5651 ft | 287 kts | 99° |
| 2026-04-16 15:01 | 51.24003 | 0.39717 | 5655 ft | 287 kts | 98° |
| 2026-04-16 15:02 | 51.23764 | 0.42870 | 5654 ft | 285 kts | 98° |
| 2026-04-16 15:02 | 51.23525 | 0.45983 | 5651 ft | 287 kts | 99° |
| 2026-04-16 15:02 | 51.23281 | 0.49157 | 5648 ft | 289 kts | 99° |
| 2026-04-16 15:02 | 51.23036 | 0.52331 | 5653 ft | 288 kts | 98° |
| 2026-04-16 15:03 | 51.22791 | 0.55488 | 5666 ft | 286 kts | 99° |
| 2026-04-16 15:03 | 51.22545 | 0.58653 | 5680 ft | 287 kts | 99° |
| 2026-04-16 15:03 | 51.22298 | 0.61826 | 5709 ft | 289 kts | 99° |
| 2026-04-16 15:03 | 51.22051 | 0.64995 | 5732 ft | 288 kts | 98° |
| 2026-04-16 15:04 | 51.21805 | 0.68137 | 5750 ft | 286 kts | 99° |
| 2026-04-16 15:04 | 51.21551 | 0.71358 | 6216 ft | 296 kts | 98° |
| 2026-04-16 15:04 | 51.21300 | 0.74552 | 7250 ft | 294 kts | 98° |
| 2026-04-16 15:04 | 51.21045 | 0.77797 | 8182 ft | 297 kts | 99° |
| 2026-04-16 15:05 | 51.20783 | 0.81093 | 9067 ft | 302 kts | 99° |
| 2026-04-16 15:05 | 51.20514 | 0.84438 | 9933 ft | 308 kts | 99° |
| 2026-04-16 15:05 | 51.20232 | 0.87898 | 10434 ft | 326 kts | 99° |
| 2026-04-16 15:05 | 51.19926 | 0.91607 | 10786 ft | 347 kts | 99° |
| 2026-04-16 15:06 | 51.19611 | 0.95475 | 11495 ft | 355 kts | 98° |
| 2026-04-16 15:06 | 51.19298 | 0.99361 | 12175 ft | 362 kts | 98° |
| 2026-04-16 15:06 | 51.18971 | 1.03362 | 12920 ft | 366 kts | 98° |
| 2026-04-16 15:06 | 51.18637 | 1.07408 | 13668 ft | 370 kts | 99° |
| 2026-04-16 15:07 | 51.18300 | 1.11492 | 14349 ft | 374 kts | 99° |
| 2026-04-16 15:07 | 51.17962 | 1.15619 | 15001 ft | 378 kts | 99° |
| 2026-04-16 15:07 | 51.17619 | 1.19800 | 15646 ft | 381 kts | 99° |
| 2026-04-16 15:07 | 51.17270 | 1.24007 | 16296 ft | 385 kts | 99° |
| 2026-04-16 15:08 | 51.16912 | 1.28259 | 16937 ft | 389 kts | 99° |
| 2026-04-16 15:08 | 51.16546 | 1.32551 | 17566 ft | 393 kts | 99° |
| 2026-04-16 15:08 | 51.16188 | 1.36824 | 18178 ft | 397 kts | 98° |
| 2026-04-16 15:08 | 51.15898 | 1.41223 | 18745 ft | 401 kts | 96° |
| 2026-04-16 15:09 | 51.15683 | 1.45669 | 19267 ft | 405 kts | 95° |
| 2026-04-16 15:09 | 51.15501 | 1.50162 | 19786 ft | 409 kts | 94° |
| 2026-04-16 15:09 | 51.15324 | 1.54705 | 20301 ft | 413 kts | 94° |
| 2026-04-16 15:09 | 51.15169 | 1.58468 | 20722 ft | 416 kts | 95° |
| 2026-04-16 15:10 | 51.14969 | 1.62996 | 21212 ft | 419 kts | 95° |
| 2026-04-16 15:10 | 51.14747 | 1.67648 | 21704 ft | 423 kts | 95° |
| 2026-04-16 15:10 | 51.14511 | 1.72334 | 22188 ft | 427 kts | 95° |
| 2026-04-16 15:10 | 51.14271 | 1.77006 | 22669 ft | 431 kts | 95° |
| 2026-04-16 15:11 | 51.14023 | 1.81777 | 23145 ft | 434 kts | 95° |
| 2026-04-16 15:11 | 51.13773 | 1.86589 | 23608 ft | 438 kts | 95° |
| 2026-04-16 15:11 | 51.13521 | 1.91441 | 24018 ft | 441 kts | 95° |
| 2026-04-16 15:11 | 51.13263 | 1.96324 | 24404 ft | 445 kts | 95° |
| 2026-04-16 15:12 | 51.13001 | 2.01247 | 24772 ft | 448 kts | 95° |
| 2026-04-16 15:12 | 51.12739 | 2.06208 | 25137 ft | 452 kts | 95° |
| 2026-04-16 15:12 | 51.12476 | 2.11207 | 25499 ft | 455 kts | 95° |
| 2026-04-16 15:12 | 51.12216 | 2.16171 | 25855 ft | 458 kts | 95° |
| 2026-04-16 15:13 | 51.11947 | 2.21247 | 26209 ft | 462 kts | 95° |
| 2026-04-16 15:13 | 51.11672 | 2.26360 | 26555 ft | 465 kts | 95° |
| 2026-04-16 15:13 | 51.11390 | 2.31498 | 26908 ft | 468 kts | 95° |
| 2026-04-16 15:13 | 51.11101 | 2.36683 | 27252 ft | 472 kts | 95° |
| 2026-04-16 15:14 | 51.10809 | 2.41892 | 27586 ft | 475 kts | 95° |
| 2026-04-16 15:14 | 51.10512 | 2.47145 | 27925 ft | 478 kts | 95° |
| 2026-04-16 15:14 | 51.10213 | 2.52431 | 28259 ft | 481 kts | 95° |
| 2026-04-16 15:14 | 51.09913 | 2.57672 | 28585 ft | 484 kts | 95° |
| 2026-04-16 15:15 | 51.09587 | 2.63023 | 28910 ft | 487 kts | 98° |
| 2026-04-16 15:15 | 51.08920 | 2.68317 | 29226 ft | 490 kts | 107° |
| 2026-04-16 15:15 | 51.07971 | 2.73536 | 29545 ft | 493 kts | 107° |
| 2026-04-16 15:15 | 51.07012 | 2.78786 | 29855 ft | 496 kts | 107° |
| 2026-04-16 15:16 | 51.06050 | 2.84061 | 30150 ft | 499 kts | 107° |
| 2026-04-16 15:16 | 51.05086 | 2.89368 | 30413 ft | 502 kts | 107° |
| 2026-04-16 15:16 | 51.04127 | 2.94641 | 30659 ft | 504 kts | 107° |
| 2026-04-16 15:16 | 51.03151 | 2.99993 | 30913 ft | 507 kts | 107° |
| 2026-04-16 15:17 | 51.02164 | 3.05378 | 31159 ft | 509 kts | 107° |
| 2026-04-16 15:17 | 51.01167 | 3.10787 | 31408 ft | 511 kts | 107° |
| 2026-04-16 15:17 | 51.00166 | 3.16200 | 31657 ft | 513 kts | 107° |
| 2026-04-16 15:17 | 50.99160 | 3.21640 | 31994 ft | 513 kts | 107° |
| 2026-04-16 15:18 | 50.98153 | 3.27065 | 32337 ft | 513 kts | 107° |
| 2026-04-16 15:18 | 50.97139 | 3.32492 | 32669 ft | 513 kts | 107° |
| 2026-04-16 15:18 | 50.96123 | 3.37912 | 32975 ft | 513 kts | 107° |
| 2026-04-16 15:18 | 50.95102 | 3.43353 | 33190 ft | 514 kts | 107° |
| 2026-04-16 15:19 | 50.94092 | 3.48738 | 33223 ft | 505 kts | 107° |
| 2026-04-16 15:19 | 50.92112 | 3.59230 | 33218 ft | 498 kts | 107° |
| 2026-04-16 15:20 | 50.90111 | 3.69718 | 33226 ft | 497 kts | 107° |
| 2026-04-16 15:20 | 50.88093 | 3.80192 | 33220 ft | 497 kts | 107° |
| 2026-04-16 15:21 | 50.86058 | 3.90666 | 33220 ft | 498 kts | 107° |
| 2026-04-16 15:21 | 50.84032 | 4.01064 | 33223 ft | 498 kts | 107° |
| 2026-04-16 15:22 | 50.81983 | 4.11516 | 33220 ft | 498 kts | 107° |
| 2026-04-16 15:22 | 50.79924 | 4.21957 | 33185 ft | 497 kts | 107° |
| 2026-04-16 15:23 | 50.77864 | 4.32376 | 33209 ft | 496 kts | 107° |
| 2026-04-16 15:23 | 50.75796 | 4.42765 | 33230 ft | 497 kts | 108° |
| 2026-04-16 15:24 | 50.73672 | 4.53340 | 33223 ft | 510 kts | 108° |
| 2026-04-16 15:24 | 50.71540 | 4.63950 | 32710 ft | 511 kts | 107° |
| 2026-04-16 15:24 | 50.70491 | 4.69297 | 32038 ft | 508 kts | 107° |
| 2026-04-16 15:25 | 50.69466 | 4.74604 | 31467 ft | 504 kts | 107° |
| 2026-04-16 15:25 | 50.68456 | 4.79866 | 30925 ft | 498 kts | 107° |
| 2026-04-16 15:25 | 50.67449 | 4.85028 | 30074 ft | 488 kts | 109° |
| 2026-04-16 15:25 | 50.66090 | 4.89867 | 29085 ft | 479 kts | 121° |
| 2026-04-16 15:26 | 50.64297 | 4.94111 | 28159 ft | 467 kts | 131° |
| 2026-04-16 15:26 | 50.62117 | 4.97808 | 27239 ft | 455 kts | 139° |
| 2026-04-16 15:26 | 50.59875 | 5.01264 | 26392 ft | 446 kts | 139° |
| 2026-04-16 15:26 | 50.57703 | 5.04626 | 25948 ft | 427 kts | 139° |
| 2026-04-16 15:27 | 50.55643 | 5.07829 | 25620 ft | 408 kts | 139° |
| 2026-04-16 15:27 | 50.53657 | 5.10910 | 25198 ft | 393 kts | 139° |
| 2026-04-16 15:27 | 50.51740 | 5.13871 | 24781 ft | 380 kts | 139° |
| 2026-04-16 15:27 | 50.49867 | 5.16757 | 24386 ft | 377 kts | 139° |
| 2026-04-16 15:28 | 50.48018 | 5.19591 | 23965 ft | 376 kts | 139° |
| 2026-04-16 15:28 | 50.46152 | 5.22448 | 23510 ft | 374 kts | 139° |
| 2026-04-16 15:28 | 50.44294 | 5.25296 | 23076 ft | 372 kts | 139° |
| 2026-04-16 15:28 | 50.42454 | 5.28115 | 22659 ft | 369 kts | 139° |
| 2026-04-16 15:29 | 50.40623 | 5.30914 | 22243 ft | 367 kts | 139° |
| 2026-04-16 15:29 | 50.38803 | 5.33698 | 21822 ft | 364 kts | 139° |
| 2026-04-16 15:29 | 50.36994 | 5.36466 | 21409 ft | 362 kts | 139° |
| 2026-04-16 15:29 | 50.35195 | 5.39212 | 20999 ft | 361 kts | 139° |
| 2026-04-16 15:30 | 50.33400 | 5.41951 | 20585 ft | 359 kts | 139° |
| 2026-04-16 15:30 | 50.31637 | 5.44639 | 20183 ft | 358 kts | 139° |
| 2026-04-16 15:30 | 50.29864 | 5.47341 | 19769 ft | 352 kts | 139° |
| 2026-04-16 15:30 | 50.28110 | 5.50007 | 19368 ft | 351 kts | 139° |
| 2026-04-16 15:31 | 50.26361 | 5.52664 | 18982 ft | 351 kts | 138° |
| 2026-04-16 15:31 | 50.24606 | 5.55326 | 18575 ft | 351 kts | 138° |
| 2026-04-16 15:31 | 50.22850 | 5.57984 | 18140 ft | 351 kts | 138° |
| 2026-04-16 15:31 | 50.21102 | 5.60626 | 17748 ft | 349 kts | 138° |
| 2026-04-16 15:32 | 50.19357 | 5.63258 | 17350 ft | 348 kts | 138° |
| 2026-04-16 15:32 | 50.17626 | 5.65873 | 16965 ft | 346 kts | 138° |
| 2026-04-16 15:32 | 50.15898 | 5.68482 | 16575 ft | 345 kts | 138° |
| 2026-04-16 15:32 | 50.14173 | 5.71080 | 16194 ft | 344 kts | 138° |
| 2026-04-16 15:33 | 50.12477 | 5.73632 | 15810 ft | 343 kts | 138° |
| 2026-04-16 15:33 | 50.10761 | 5.76212 | 15426 ft | 342 kts | 138° |
| 2026-04-16 15:33 | 50.09048 | 5.78783 | 15022 ft | 342 kts | 138° |
| 2026-04-16 15:33 | 50.07336 | 5.81354 | 14580 ft | 343 kts | 138° |
| 2026-04-16 15:34 | 50.05588 | 5.83977 | 13803 ft | 354 kts | 138° |
| 2026-04-16 15:34 | 50.03816 | 5.86633 | 13334 ft | 352 kts | 138° |
| 2026-04-16 15:34 | 50.02064 | 5.89257 | 12905 ft | 348 kts | 138° |
| 2026-04-16 15:34 | 50.00327 | 5.91852 | 12497 ft | 345 kts | 138° |
| 2026-04-16 15:35 | 49.98628 | 5.94390 | 12081 ft | 342 kts | 138° |
| 2026-04-16 15:35 | 49.96920 | 5.96940 | 11663 ft | 339 kts | 138° |
| 2026-04-16 15:35 | 49.95224 | 5.99470 | 11290 ft | 336 kts | 138° |
| 2026-04-16 15:35 | 49.93543 | 6.01973 | 10886 ft | 333 kts | 138° |
| 2026-04-16 15:36 | 49.91872 | 6.04461 | 10469 ft | 332 kts | 138° |
| 2026-04-16 15:36 | 49.90216 | 6.06920 | 10171 ft | 326 kts | 138° |
| 2026-04-16 15:36 | 49.88610 | 6.09306 | 10029 ft | 314 kts | 139° |
| 2026-04-16 15:36 | 49.87064 | 6.11600 | 9904 ft | 302 kts | 138° |
| 2026-04-16 15:37 | 49.85707 | 6.14053 | 9630 ft | 299 kts | 126° |
| 2026-04-16 15:37 | 49.84639 | 6.16756 | 9263 ft | 297 kts | 123° |
| 2026-04-16 15:37 | 49.83577 | 6.19484 | 8882 ft | 295 kts | 123° |
| 2026-04-16 15:37 | 49.82519 | 6.22205 | 8504 ft | 293 kts | 123° |
| 2026-04-16 15:38 | 49.81483 | 6.24889 | 7931 ft | 288 kts | 123° |
| 2026-04-16 15:38 | 49.80470 | 6.27535 | 7316 ft | 284 kts | 123° |
| 2026-04-16 15:38 | 49.79472 | 6.30154 | 6742 ft | 280 kts | 123° |
| 2026-04-16 15:38 | 49.78494 | 6.32716 | 6208 ft | 272 kts | 124° |
| 2026-04-16 15:39 | 49.77556 | 6.35165 | 6001 ft | 259 kts | 123° |
| 2026-04-16 15:39 | 49.76660 | 6.37500 | 5885 ft | 246 kts | 123° |
| 2026-04-16 15:39 | 49.75814 | 6.39703 | 5782 ft | 237 kts | 123° |
| 2026-04-16 15:39 | 49.74963 | 6.41823 | 5664 ft | 228 kts | 131° |
| 2026-04-16 15:40 | 49.73713 | 6.43196 | 5406 ft | 220 kts | 167° |
| 2026-04-16 15:40 | 49.72231 | 6.43223 | 5171 ft | 213 kts | 197° |
| 2026-04-16 15:40 | 49.70902 | 6.42291 | 4933 ft | 208 kts | 217° |
| 2026-04-16 15:40 | 49.69898 | 6.40732 | 4708 ft | 203 kts | 237° |
| 2026-04-16 15:41 | 49.69189 | 6.38856 | 4385 ft | 206 kts | 241° |
| 2026-04-16 15:41 | 49.68477 | 6.36922 | 4027 ft | 202 kts | 242° |
| 2026-04-16 15:41 | 49.67785 | 6.35045 | 3510 ft | 203 kts | 241° |
| 2026-04-16 15:41 | 49.67093 | 6.33170 | 3079 ft | 200 kts | 242° |
| 2026-04-16 15:42 | 49.66428 | 6.31375 | 3032 ft | 185 kts | 242° |
| 2026-04-16 15:42 | 49.65840 | 6.29787 | 3030 ft | 159 kts | 242° |
| 2026-04-16 15:42 | 49.65308 | 6.28347 | 3022 ft | 151 kts | 241° |
| 2026-04-16 15:42 | 49.64793 | 6.26953 | 3032 ft | 150 kts | 241° |
| 2026-04-16 15:43 | 49.64274 | 6.25551 | 3039 ft | 150 kts | 242° |
| 2026-04-16 15:43 | 49.63721 | 6.24059 | 3063 ft | 176 kts | 240° |
| 2026-04-16 15:43 | 49.63087 | 6.22352 | 3045 ft | 185 kts | 241° |
| 2026-04-16 15:43 | 49.62442 | 6.20636 | 3038 ft | 184 kts | 241° |
| 2026-04-16 15:44 | 49.61651 | 6.19108 | 3039 ft | 189 kts | 216° |
| 2026-04-16 15:44 | 49.60392 | 6.18598 | 3037 ft | 195 kts | 177° |
| 2026-04-16 15:44 | 49.59147 | 6.19455 | 3038 ft | 203 kts | 138° |
| 2026-04-16 15:44 | 49.58469 | 6.21358 | 3033 ft | 208 kts | 99° |
| 2026-04-16 15:45 | 49.58523 | 6.23593 | 3041 ft | 209 kts | 81° |
| 2026-04-16 15:45 | 49.58792 | 6.25794 | 3035 ft | 210 kts | 78° |
| 2026-04-16 15:45 | 49.59084 | 6.28004 | 3044 ft | 211 kts | 78° |
| 2026-04-16 15:45 | 49.59376 | 6.30184 | 3034 ft | 209 kts | 78° |
| 2026-04-16 15:46 | 49.59669 | 6.32380 | 3040 ft | 208 kts | 78° |
| 2026-04-16 15:46 | 49.59958 | 6.34566 | 3040 ft | 209 kts | 79° |
| 2026-04-16 15:46 | 49.60254 | 6.36765 | 3033 ft | 211 kts | 78° |
| 2026-04-16 15:46 | 49.60546 | 6.38977 | 3040 ft | 211 kts | 78° |
| 2026-04-16 15:47 | 49.60837 | 6.41197 | 3040 ft | 210 kts | 78° |
| 2026-04-16 15:47 | 49.61117 | 6.43405 | 3040 ft | 210 kts | 78° |
| 2026-04-16 15:47 | 49.61400 | 6.45620 | 3032 ft | 212 kts | 77° |
| 2026-04-16 15:47 | 49.61676 | 6.47848 | 3036 ft | 210 kts | 79° |
| 2026-04-16 15:48 | 49.61956 | 6.50057 | 3034 ft | 210 kts | 78° |
| 2026-04-16 15:48 | 49.62239 | 6.52277 | 3025 ft | 211 kts | 78° |
| 2026-04-16 15:48 | 49.62522 | 6.54481 | 3031 ft | 213 kts | 78° |
| 2026-04-16 15:48 | 49.62806 | 6.56707 | 3028 ft | 211 kts | 78° |
| 2026-04-16 15:49 | 49.63089 | 6.58916 | 3032 ft | 209 kts | 78° |
| 2026-04-16 15:49 | 49.63364 | 6.61126 | 3026 ft | 210 kts | 78° |
| 2026-04-16 15:49 | 49.63647 | 6.63328 | 3025 ft | 209 kts | 78° |
| 2026-04-16 15:49 | 49.63937 | 6.65533 | 3025 ft | 210 kts | 78° |
| 2026-04-16 15:50 | 49.64306 | 6.67703 | 3032 ft | 208 kts | 64° |
| 2026-04-16 15:50 | 49.65194 | 6.69405 | 3023 ft | 204 kts | 32° |
| 2026-04-16 15:50 | 49.66494 | 6.70176 | 3027 ft | 199 kts | 3° |
| 2026-04-16 15:50 | 49.67816 | 6.69886 | 3023 ft | 194 kts | 334° |
| 2026-04-16 15:51 | 49.68879 | 6.68692 | 3020 ft | 190 kts | 307° |
| 2026-04-16 15:51 | 49.69521 | 6.66932 | 3019 ft | 188 kts | 293° |
| 2026-04-16 15:51 | 49.69978 | 6.65037 | 3027 ft | 188 kts | 282° |
| 2026-04-16 15:51 | 49.70229 | 6.63063 | 3019 ft | 187 kts | 278° |
| 2026-04-16 15:52 | 49.70445 | 6.61065 | 3021 ft | 189 kts | 278° |
| 2026-04-16 15:52 | 49.70656 | 6.59064 | 3019 ft | 188 kts | 278° |
| 2026-04-16 15:52 | 49.70861 | 6.57090 | 3016 ft | 184 kts | 277° |
| 2026-04-16 15:52 | 49.71078 | 6.55126 | 3028 ft | 186 kts | 278° |
| 2026-04-16 15:53 | 49.71293 | 6.53177 | 3027 ft | 185 kts | 278° |
| 2026-04-16 15:53 | 49.71502 | 6.51217 | 3024 ft | 184 kts | 278° |
| 2026-04-16 15:53 | 49.71704 | 6.49249 | 3023 ft | 187 kts | 275° |
| 2026-04-16 15:53 | 49.71687 | 6.47257 | 3032 ft | 186 kts | 265° |
| 2026-04-16 15:54 | 49.71544 | 6.45277 | 3020 ft | 184 kts | 263° |
| 2026-04-16 15:54 | 49.71384 | 6.43311 | 3034 ft | 184 kts | 263° |
| 2026-04-16 15:54 | 49.71230 | 6.41353 | 3023 ft | 183 kts | 262° |
| 2026-04-16 15:54 | 49.70815 | 6.39554 | 2905 ft | 177 kts | 239° |
| 2026-04-16 15:55 | 49.70010 | 6.38292 | 2955 ft | 155 kts | 221° |
| 2026-04-16 15:55 | 49.69186 | 6.37292 | 2993 ft | 148 kts | 223° |
| 2026-04-16 15:55 | 49.68453 | 6.36185 | 2920 ft | 146 kts | 230° |
| 2026-04-16 15:55 | 49.67812 | 6.35002 | 2754 ft | 141 kts | 238° |
| 2026-04-16 15:56 | 49.67267 | 6.33730 | 2526 ft | 143 kts | 240° |
| 2026-04-16 15:56 | 49.66734 | 6.32446 | 2311 ft | 141 kts | 241° |
| 2026-04-16 15:56 | 49.66257 | 6.31110 | 2074 ft | 140 kts | 246° |
| 2026-04-16 15:56 | 49.65844 | 6.29755 | 1996 ft | 138 kts | 241° |
| 2026-04-16 15:57 | 49.65350 | 6.28487 | 1928 ft | 138 kts | 239° |
| 2026-04-16 15:57 | 49.64864 | 6.27238 | 1772 ft | 136 kts | 241° |
| 2026-04-16 15:57 | 49.64414 | 6.25949 | 1617 ft | 134 kts | 241° |
| 2026-04-16 15:57 | 49.63956 | 6.24690 | 1421 ft | 134 kts | 242° |
| 2026-04-16 15:58 | 49.63505 | 6.23484 | 1261 ft | 128 kts | 241° |
| 2026-04-16 15:58 | 49.63125 | 6.22444 | 1212 ft | 66 kts | 241° |
| 2026-04-16 15:58 | 49.63044 | 6.22153 | 1215 ft | 17 kts | 290° |
| 2026-04-16 15:58 | 49.63128 | 6.22066 | 1222 ft | 12 kts | 329° |
| 2026-04-16 15:59 | 49.63184 | 6.21917 | 1228 ft | 8 kts | 307° |
| 2026-04-16 15:59 | 49.63232 | 6.21867 | 1228 ft | 10 kts | 331° |
| 2026-04-16 15:59 | 49.63305 | 6.21799 | 1230 ft | 13 kts | 324° |
| 2026-04-16 16:00 | 49.63365 | 6.21742 | 1230 ft | 0 kts | 330° |
| 2026-04-16 16:00 | 49.63367 | 6.21740 | 1230 ft | 0 kts | 330° |